KAVX/AVX METAR and TAF weather

Enter ICAO airport designator
Station Type Date Time Source
KAVX METAR 2019/08/25 13:51 UTC NOAA

KAVX 251351Z AUTO 06006KT 10SM CLR 22/10 A3002 RMK AO2 SLP139 T02220100 $


Station Type Date Time Source
KAVX Decoded METAR 2019/08/25 13:51 UTC NOAA

Station name not available
Aug 25, 2019 - 09:51 AM EDT / 2019.08.25 1351 UTC
Wind: from the ENE (060 degrees) at 7 MPH (6 KT):0
Visibility: 10 mile(s):0
Sky conditions: clear
Temperature: 72.0 F (22.2 C)
Dew Point: 50.0 F (10.0 C)
Relative Humidity: 45%
Pressure (altimeter): 30.02 in. Hg (1016 hPa)
ob: KAVX 251351Z AUTO 06006KT 10SM CLR 22/10 A3002 RMK AO2 SLP139 T02220100
cycle: 14

Station Type Date Time Source
KAVX TAF UTC NOAA

Error!

Example: see airport list